Time;durP1;ratioP1;P1;durP2;ratioP2;P2;SDS_P1;SDS_P2;PMS_P1;PMS_P2;Temp;Humidity;BMP_temperature;BMP_pressure;BME280_temperature;BME280_humidity;BME280_pressure;Samples;Min_cycle;Max_cycle;Signal;HPM_P1;HPM_P2
2021/05/12 00:03:58;;;;;;;3.17;2.97;;;;;;;15.76;65.88;97253.09;8279639;28;20206;-63
2021/05/12 00:08:01;;;;;;;3.30;3.10;;;;;;;15.73;66.21;97250.72;8280878;28;20319;-63
2021/05/12 00:12:05;;;;;;;3.93;3.13;;;;;;;15.82;65.80;97262.22;8280961;28;20212;-63
2021/05/12 00:16:08;;;;;;;3.50;3.30;;;;;;;15.77;65.86;97256.53;8280383;28;20221;-63
2021/05/12 00:20:13;;;;;;;4.03;3.63;;;;;;;15.71;65.54;97252.59;8280497;28;20296;-63
2021/05/12 00:24:15;;;;;;;4.50;3.20;;;;;;;15.88;65.70;97253.09;8302680;28;20223;-63
2021/05/12 00:28:18;;;;;;;3.60;3.30;;;;;;;15.80;65.79;97246.69;8313461;28;20397;-63
2021/05/12 00:32:21;;;;;;;3.37;3.17;;;;;;;15.81;65.74;97244.91;8313382;28;20220;-63
2021/05/12 00:36:23;;;;;;;3.60;3.40;;;;;;;15.85;65.39;97250.72;8313304;28;20221;-63
2021/05/12 00:40:26;;;;;;;3.73;3.47;;;;;;;15.88;65.13;97253.94;8312777;28;20228;-64
2021/05/12 00:44:29;;;;;;;3.93;3.63;;;;;;;15.79;65.61;97259.88;8312730;28;20224;-64
2021/05/12 00:48:31;;;;;;;4.60;3.23;;;;;;;15.85;65.47;97258.56;8312746;28;20201;-64
2021/05/12 00:52:34;;;;;;;3.67;3.37;;;;;;;15.89;65.53;97262.59;8312240;28;20201;-64
2021/05/12 00:56:39;;;;;;;4.73;3.33;;;;;;;15.83;65.35;97269.13;8312946;28;20201;-64
2021/05/12 01:00:43;;;;;;;3.50;3.30;;;;;;;15.88;65.33;97266.13;8317018;28;20503;-64
2021/05/12 01:04:45;;;;;;;3.30;3.10;;;;;;;15.81;65.34;97258.78;8287039;28;20232;-64
2021/05/12 01:08:47;;;;;;;3.63;3.43;;;;;;;15.86;65.42;97263.69;8286621;28;20253;-62
2021/05/12 01:12:50;;;;;;;3.87;3.40;;;;;;;15.81;65.56;97264.00;8285531;28;20209;-62
2021/05/12 01:16:59;;;;;;;3.60;3.40;;;;;;;15.72;65.93;97261.25;8286060;28;20457;-62
2021/05/12 01:21:05;;;;;;;3.17;2.97;;;;;;;15.75;65.97;97259.28;8285279;28;20237;-62
2021/05/12 01:25:09;;;;;;;4.00;3.70;;;;;;;15.72;65.95;97256.03;8285218;28;20440;-62
2021/05/12 01:29:12;;;;;;;4.03;3.63;;;;;;;15.75;65.80;97256.66;8285222;28;20218;-61
2021/05/12 01:33:14;;;;;;;3.80;3.50;;;;;;;15.74;65.84;97256.78;8285063;28;20328;-62
2021/05/12 01:37:18;;;;;;;3.80;3.50;;;;;;;15.69;66.03;97272.75;8284753;28;20208;-62
2021/05/12 01:41:23;;;;;;;3.80;3.50;;;;;;;15.65;66.08;97266.13;8285266;28;20251;-62
2021/05/12 01:45:25;;;;;;;3.70;3.20;;;;;;;15.76;65.81;97260.94;8284951;28;20373;-62
2021/05/12 01:49:29;;;;;;;3.87;3.27;;;;;;;15.66;66.12;97251.28;8284526;28;20209;-62
2021/05/12 01:53:35;;;;;;;3.23;3.00;;;;;;;15.66;65.82;97246.06;8284553;28;20456;-62
2021/05/12 01:57:40;;;;;;;3.20;3.00;;;;;;;15.60;66.20;97242.97;8284538;28;20208;-62
2021/05/12 02:01:42;;;;;;;3.40;3.20;;;;;;;15.66;65.82;97243.44;8284322;28;20557;-62
2021/05/12 02:05:47;;;;;;;3.63;3.33;;;;;;;15.65;66.05;97232.19;8284095;28;20241;-62
2021/05/12 02:09:52;;;;;;;4.60;3.70;;;;;;;15.55;66.61;97228.59;8284376;28;20213;-62
2021/05/12 02:13:55;;;;;;;3.40;3.20;;;;;;;15.47;66.43;97225.75;8284010;28;20214;-62
2021/05/12 02:17:58;;;;;;;3.80;3.50;;;;;;;15.42;66.61;97220.88;8284132;28;20210;-62
2021/05/12 02:22:00;;;;;;;3.67;3.37;;;;;;;15.49;66.29;97211.63;8284108;28;20543;-62
2021/05/12 02:26:03;;;;;;;3.90;3.60;;;;;;;15.40;66.59;97210.56;8284367;28;20513;-62
2021/05/12 02:30:08;;;;;;;3.90;3.60;;;;;;;15.28;67.13;97213.28;8284385;28;20212;-62
2021/05/12 02:34:10;;;;;;;4.13;3.83;;;;;;;15.24;67.09;97210.88;8284160;28;20224;-62
2021/05/12 02:38:13;;;;;;;4.23;3.83;;;;;;;15.22;67.34;97207.56;8283532;28;20202;-62
2021/05/12 02:42:16;;;;;;;3.90;3.60;;;;;;;15.33;66.74;97213.75;8283259;28;20233;-62
2021/05/12 02:46:19;;;;;;;4.20;3.90;;;;;;;15.28;66.68;97210.66;8282961;28;20205;-62
2021/05/12 02:50:21;;;;;;;3.93;3.63;;;;;;;15.39;66.52;97203.69;8283011;28;20223;-62
2021/05/12 02:54:23;;;;;;;4.13;3.83;;;;;;;15.44;66.33;97208.56;8282563;28;20207;-62
2021/05/12 02:58:26;;;;;;;4.30;4.00;;;;;;;15.23;67.08;97205.78;8282541;28;20293;-62
2021/05/12 03:02:29;;;;;;;4.60;4.20;;;;;;;15.20;67.25;97211.25;8282740;28;20230;-62
2021/05/12 03:06:31;;;;;;;3.93;3.63;;;;;;;15.31;66.73;97213.88;8282196;28;20248;-62
2021/05/12 03:10:34;;;;;;;4.43;4.03;;;;;;;15.29;66.71;97217.53;8282673;28;20206;-62
2021/05/12 03:14:38;;;;;;;3.80;3.50;;;;;;;15.32;66.79;97215.53;8282734;28;20209;-62
2021/05/12 03:18:40;;;;;;;4.10;3.80;;;;;;;15.16;67.24;97215.03;8288756;28;20204;-62
2021/05/12 03:22:43;;;;;;;3.40;3.20;;;;;;;15.34;66.73;97220.63;8296507;28;20221;-62
2021/05/12 03:26:45;;;;;;;3.73;3.43;;;;;;;15.34;66.80;97224.06;8305562;28;20262;-62
2021/05/12 03:30:49;;;;;;;4.40;4.10;;;;;;;15.34;66.92;97228.44;8282432;28;20612;-62
2021/05/12 03:34:51;;;;;;;4.60;4.30;;;;;;;15.32;67.03;97225.13;8287783;28;20205;-62
2021/05/12 03:38:53;;;;;;;4.80;4.40;;;;;;;15.36;66.86;97231.78;8314119;28;20201;-62
2021/05/12 03:42:57;;;;;;;5.40;4.90;;;;;;;15.28;66.92;97215.88;8314595;28;20212;-62
2021/05/12 03:47:01;;;;;;;5.27;4.80;;;;;;;15.31;67.09;97213.88;8314766;28;20498;-62
2021/05/12 03:51:04;;;;;;;5.80;5.30;;;;;;;15.34;66.75;97215.41;8314612;28;20216;-63
2021/05/12 03:55:08;;;;;;;6.97;6.37;;;;;;;15.31;66.98;97211.25;8282078;28;20214;-63
2021/05/12 03:59:10;;;;;;;8.80;7.90;;;;;;;15.20;67.33;97224.28;8281220;28;20210;-62
2021/05/12 04:03:14;;;;;;;9.70;8.80;;;;;;;15.22;67.13;97219.78;8281080;28;20210;-63
2021/05/12 04:07:16;;;;;;;9.60;8.50;;;;;;;15.26;66.94;97223.81;8281444;28;20229;-62
2021/05/12 04:11:19;;;;;;;10.50;9.60;;;;;;;15.23;67.30;97227.50;8281812;28;20206;-62
2021/05/12 04:15:21;;;;;;;11.47;10.37;;;;;;;15.34;66.66;97228.44;8281550;28;20202;-62
2021/05/12 04:19:24;;;;;;;10.93;9.93;;;;;;;15.37;66.74;97234.28;8281460;28;20236;-62
2021/05/12 04:23:27;;;;;;;12.83;11.63;;;;;;;15.14;67.47;97233.38;8280765;28;20213;-63
2021/05/12 04:27:29;;;;;;;13.00;11.70;;;;;;;15.29;66.93;97241.84;8298397;28;20197;-62
2021/05/12 04:31:33;;;;;;;11.60;10.50;;;;;;;15.36;66.79;97247.44;8313688;28;20299;-63
2021/05/12 04:35:36;;;;;;;12.57;11.37;;;;;;;15.30;66.96;97250.50;8318217;28;20549;-63
2021/05/12 04:39:38;;;;;;;15.13;12.17;;;;;;;15.17;67.91;97264.47;8319722;28;20232;-63
2021/05/12 04:43:41;;;;;;;12.43;11.23;;;;;;;15.29;67.43;97262.72;8314552;28;20193;-63
2021/05/12 04:47:54;;;;;;;13.80;12.37;;;;;;;15.25;67.77;97266.50;8286901;28;20579;-62
2021/05/12 04:51:57;;;;;;;13.97;12.67;;;;;;;15.15;67.76;97268.13;8287295;28;20340;-62
2021/05/12 04:56:00;;;;;;;14.67;13.17;;;;;;;15.14;67.52;97272.50;8286947;28;20201;-62
2021/05/12 05:00:03;;;;;;;14.10;12.70;;;;;;;15.05;67.75;97274.00;8287345;28;20415;-62
2021/05/12 05:04:05;;;;;;;13.07;11.67;;;;;;;15.14;67.55;97282.13;8286750;28;20228;-63
2021/05/12 05:08:10;;;;;;;13.87;12.57;;;;;;;14.97;67.97;97273.75;8286557;28;20253;-63
2021/05/12 05:12:12;;;;;;;11.67;10.47;;;;;;;15.10;67.26;97273.69;8287059;28;20209;-62
2021/05/12 05:16:14;;;;;;;13.13;11.90;;;;;;;15.13;66.97;97276.06;8286871;28;20198;-63
2021/05/12 05:20:17;;;;;;;12.50;11.20;;;;;;;15.15;67.27;97274.16;8286232;28;20235;-62
2021/05/12 05:24:20;;;;;;;12.57;11.27;;;;;;;15.15;67.12;97281.97;8286688;28;20201;-62
2021/05/12 05:28:23;;;;;;;12.60;11.30;;;;;;;15.01;67.58;97290.00;8286481;28;20413;-62
2021/05/12 05:32:25;;;;;;;11.53;10.33;;;;;;;15.16;66.70;97294.09;8285182;28;20208;-62
2021/05/12 05:36:27;;;;;;;12.40;10.57;;;;;;;14.96;66.84;97302.53;8285078;28;20212;-63
2021/05/12 05:40:30;;;;;;;13.63;11.27;;;;;;;14.93;66.89;97310.59;8304194;28;20221;-63
2021/05/12 05:44:33;;;;;;;12.80;9.57;;;;;;;14.91;67.65;97305.50;8289857;28;20221;-63
2021/05/12 05:48:35;;;;;;;12.13;10.10;;;;;;;15.06;66.68;97311.38;8297572;28;20194;-62
2021/05/12 05:52:38;;;;;;;12.97;10.50;;;;;;;15.09;66.26;97313.72;8291414;28;20220;-62
2021/05/12 05:56:42;;;;;;;10.60;9.50;;;;;;;15.02;66.34;97323.78;8285590;28;20227;-62
2021/05/12 06:00:46;;;;;;;14.83;10.70;;;;;;;15.15;66.09;97317.66;8292844;28;20228;-63
2021/05/12 06:04:49;;;;;;;11.93;10.73;;;;;;;15.07;65.98;97320.00;8285101;28;20228;-63
2021/05/12 06:08:52;;;;;;;13.97;11.30;;;;;;;15.11;66.25;97317.06;8285008;28;20406;-63
2021/05/12 06:12:55;;;;;;;11.90;10.70;;;;;;;15.02;66.05;97318.56;8285307;28;20220;-63
2021/05/12 06:16:58;;;;;;;15.00;11.80;;;;;;;15.03;66.22;97320.22;8300104;28;20213;-63
2021/05/12 06:21:00;;;;;;;14.77;13.20;;;;;;;15.03;65.98;97322.00;8286215;28;20296;-63
2021/05/12 06:25:03;;;;;;;13.90;12.03;;;;;;;15.00;66.18;97324.81;8286022;28;20542;-63
2021/05/12 06:29:07;;;;;;;12.93;11.60;;;;;;;15.17;65.77;97329.66;8284694;28;20229;-63
2021/05/12 06:33:09;;;;;;;17.10;12.10;;;;;;;15.02;66.62;97329.00;8285101;28;20209;-63
2021/05/12 06:37:12;;;;;;;14.67;12.77;;;;;;;15.03;66.75;97329.84;8284552;28;20244;-63
2021/05/12 06:41:14;;;;;;;15.73;12.43;;;;;;;15.17;66.17;97334.88;8284581;28;20299;-63
2021/05/12 06:45:18;;;;;;;14.20;12.63;;;;;;;15.04;66.56;97337.56;8284006;28;20202;-63
2021/05/12 06:49:21;;;;;;;12.87;11.43;;;;;;;15.15;66.38;97334.13;8286938;28;20205;-63
2021/05/12 06:53:27;;;;;;;14.43;12.93;;;;;;;15.01;66.42;97335.16;8316286;28;20209;-63
2021/05/12 06:57:30;;;;;;;17.80;12.70;;;;;;;15.20;66.57;97345.06;8314825;28;20213;-62
2021/05/12 07:01:33;;;;;;;14.13;12.67;;;;;;;15.12;66.50;97339.59;8303546;28;20421;-63
2021/05/12 07:05:35;;;;;;;15.27;13.67;;;;;;;14.93;66.91;97345.31;8283204;28;20253;-63
2021/05/12 07:09:39;;;;;;;14.60;13.00;;;;;;;15.02;66.33;97347.25;8282918;28;20382;-63
2021/05/12 07:13:41;;;;;;;16.53;13.63;;;;;;;14.98;66.64;97343.22;8282595;28;20523;-63
2021/05/12 07:17:44;;;;;;;14.37;12.67;;;;;;;15.11;66.30;97344.91;8282526;28;20255;-63
2021/05/12 07:21:47;;;;;;;13.80;12.50;;;;;;;15.17;66.52;97347.06;8282185;28;20304;-63
2021/05/12 07:25:49;;;;;;;15.47;13.57;;;;;;;14.90;67.33;97352.50;8282139;28;20201;-63
2021/05/12 07:29:52;;;;;;;14.90;13.47;;;;;;;14.93;66.76;97347.91;8281872;28;20228;-63
2021/05/12 07:33:57;;;;;;;15.37;13.90;;;;;;;15.01;66.55;97348.19;8281503;28;20202;-62
2021/05/12 07:37:59;;;;;;;14.03;12.53;;;;;;;15.16;66.55;97342.81;8281483;28;20201;-62
2021/05/12 07:42:07;;;;;;;18.37;14.27;;;;;;;14.97;66.91;97338.94;8281192;28;20226;-63
2021/05/12 07:46:09;;;;;;;14.67;13.17;;;;;;;15.05;66.84;97344.41;8282237;28;20223;-63
2021/05/12 07:50:13;;;;;;;15.10;13.50;;;;;;;15.11;67.37;97334.50;8282213;28;20206;-63
2021/05/12 07:54:15;;;;;;;14.83;13.23;;;;;;;15.06;66.65;97334.84;8282096;28;20205;-64
2021/05/12 07:58:18;;;;;;;16.60;6.47;;;;;;;15.92;66.02;97336.31;8280894;28;20208;-68
2021/05/12 08:02:20;;;;;;;14.10;9.97;;;;;;;16.30;63.34;97340.38;8281589;28;20563;-67
2021/05/12 08:06:24;;;;;;;10.90;9.73;;;;;;;16.54;62.16;97336.78;8281476;28;20253;-68
2021/05/12 08:10:26;;;;;;;13.00;9.70;;;;;;;16.75;61.44;97339.47;8280620;28;20515;-67
2021/05/12 08:14:29;;;;;;;11.13;9.63;;;;;;;16.81;60.90;97338.97;8281139;28;20219;-67
2021/05/12 08:18:31;;;;;;;14.20;10.57;;;;;;;16.66;61.30;97338.44;8281249;28;20321;-67
2021/05/12 08:22:34;;;;;;;10.20;9.20;;;;;;;16.76;61.08;97341.97;8281210;28;20227;-68
2021/05/12 08:26:37;;;;;;;10.93;9.23;;;;;;;16.76;61.37;97333.31;8280421;28;20197;-68
2021/05/12 08:30:45;;;;;;;11.20;9.40;;;;;;;16.73;60.99;97341.38;8280551;28;20229;-67
2021/05/12 08:34:47;;;;;;;10.47;9.20;;;;;;;16.78;60.85;97342.69;8280892;28;20186;-67
2021/05/12 08:38:50;;;;;;;11.40;10.17;;;;;;;16.69;61.25;97342.59;8280262;28;20555;-67
2021/05/12 08:42:54;;;;;;;12.60;8.77;;;;;;;16.73;60.58;97339.59;8277995;28;20289;-67
2021/05/12 08:46:56;;;;;;;12.30;9.20;;;;;;;16.84;60.29;97344.00;8280761;28;20198;-67
2021/05/12 08:51:00;;;;;;;10.53;9.00;;;;;;;17.02;60.30;97341.72;8298133;28;20478;-68
2021/05/12 08:55:04;;;;;;;9.73;8.07;;;;;;;17.19;59.93;97345.56;8313898;28;20201;-68
2021/05/12 08:59:07;;;;;;;10.40;9.03;;;;;;;17.18;60.13;97347.34;8313096;28;20386;-67
2021/05/12 09:03:10;;;;;;;11.93;8.57;;;;;;;17.43;59.28;97355.00;8313274;28;20539;-67
2021/05/12 09:07:12;;;;;;;13.90;8.20;;;;;;;17.48;59.39;97345.00;8313666;28;20243;-68
2021/05/12 09:11:16;;;;;;;10.53;9.37;;;;;;;17.53;59.62;97340.19;8283926;28;20209;-68
2021/05/12 09:15:21;;;;;;;12.87;8.97;;;;;;;17.23;60.18;97331.31;8280958;28;20214;-68
2021/05/12 09:19:25;;;;;;;18.33;8.93;;;;;;;17.39;59.66;97334.31;8281458;28;20208;-68
2021/05/12 09:23:38;;;;;;;11.47;7.83;;;;;;;17.62;58.96;97331.56;8286673;28;20229;-67
2021/05/12 09:27:41;;;;;;;15.07;8.67;;;;;;;17.57;59.70;97336.34;8287155;28;20190;-67
2021/05/12 09:31:44;;;;;;;11.87;7.70;;;;;;;17.72;58.67;97336.88;8285873;28;20198;-67
2021/05/12 09:35:46;;;;;;;11.20;7.87;;;;;;;17.93;57.93;97329.88;8287003;28;20229;-67
2021/05/12 09:39:50;;;;;;;11.93;8.50;;;;;;;17.89;58.21;97330.25;8286276;28;20205;-67
2021/05/12 09:43:55;;;;;;;14.90;10.13;;;;;;;17.55;59.60;97328.66;8286010;28;20237;-67
2021/05/12 09:47:58;;;;;;;13.30;12.00;;;;;;;16.96;61.43;97329.13;8286695;28;20213;-76
2021/05/12 09:52:02;;;;;;;14.63;12.63;;;;;;;16.64;62.04;97327.28;8288950;28;20276;-77
2021/05/12 09:56:04;;;;;;;16.53;12.27;;;;;;;16.56;62.72;97333.09;8289949;28;20220;-76
2021/05/12 10:00:26;;;;;;;14.43;13.00;;;;;;;16.39;63.06;97323.97;8289514;28;20216;-76
2021/05/12 10:04:33;;;;;;;14.40;12.90;;;;;;;16.18;64.17;97321.25;8289423;28;20221;-76
2021/05/12 10:08:37;;;;;;;13.30;12.03;;;;;;;16.10;63.44;97331.44;8289426;28;20305;-77
2021/05/12 10:12:40;;;;;;;82.83;21.00;;;;;;;16.11;64.99;97337.53;8289589;28;20206;-76
2021/05/12 10:16:49;;;;;;;15.60;13.27;;;;;;;16.25;64.32;97332.03;8289805;28;20220;-76
2021/05/12 10:20:53;;;;;;;15.23;13.77;;;;;;;16.01;64.58;97332.16;8285084;28;20293;-74
2021/05/12 10:24:55;;;;;;;13.77;7.67;;;;;;;16.63;63.21;97333.44;8283814;28;20511;-68
2021/05/12 10:28:58;;;;;;;16.03;7.40;;;;;;;17.05;62.06;97327.56;8284329;28;20206;-66
2021/05/12 10:33:03;;;;;;;16.30;10.10;;;;;;;17.19;61.86;97328.09;8284362;28;20205;-67
2021/05/12 10:37:25;;;;;;;16.73;9.60;;;;;;;17.19;61.57;97325.50;8284353;28;20212;-66
2021/05/12 10:41:46;;;;;;;13.60;8.30;;;;;;;17.70;59.62;97330.94;8283738;28;20237;-66
2021/05/12 10:46:03;;;;;;;12.57;10.20;;;;;;;17.54;60.06;97332.22;8282610;28;20224;-65
2021/05/12 10:50:07;;;;;;;9.47;8.30;;;;;;;17.71;60.17;97324.75;8290743;28;20205;-67
2021/05/12 10:54:11;;;;;;;21.27;11.40;;;;;;;17.56;60.73;97332.91;8282593;28;20209;-67
2021/05/12 10:58:15;;;;;;;17.13;9.73;;;;;;;17.87;59.47;97335.63;8284259;28;20321;-67
2021/05/12 11:02:52;;;;;;;14.07;8.43;;;;;;;18.09;58.83;97328.59;8283639;28;20240;-67
2021/05/12 11:07:03;;;;;;;13.20;9.23;;;;;;;17.95;58.67;97327.97;8283198;28;20264;-68
2021/05/12 11:11:06;;;;;;;14.70;9.30;;;;;;;17.95;59.02;97333.22;8283225;28;20220;-67
2021/05/12 11:15:09;;;;;;;19.87;10.63;;;;;;;18.02;58.96;97325.63;8283359;28;20493;-68
2021/05/12 11:19:12;;;;;;;10.30;8.30;;;;;;;17.84;58.50;97327.16;8283413;28;20501;-66
2021/05/12 11:23:15;;;;;;;12.30;9.77;;;;;;;18.13;58.60;97314.25;8283039;28;20251;-67
2021/05/12 11:27:26;;;;;;;10.03;8.63;;;;;;;18.36;57.87;97315.72;8282748;28;20230;-67
2021/05/12 11:31:38;;;;;;;10.97;9.13;;;;;;;18.40;58.25;97313.66;8280046;28;20312;-65
2021/05/12 11:35:47;;;;;;;13.87;9.37;;;;;;;18.17;58.52;97308.59;8282620;28;20213;-66
2021/05/12 11:39:52;;;;;;;11.20;8.90;;;;;;;18.07;58.91;97302.50;8282910;28;20213;-67
2021/05/12 11:43:56;;;;;;;14.30;10.23;;;;;;;17.93;59.06;97313.31;8281852;28;20309;-68
2021/05/12 11:48:02;;;;;;;11.90;9.90;;;;;;;18.14;58.71;97308.03;8282415;28;20202;-66
2021/05/12 11:52:05;;;;;;;14.13;12.27;;;;;;;18.19;58.75;97300.63;8307168;28;20205;-67
2021/05/12 11:56:08;;;;;;;24.97;16.37;;;;;;;17.58;59.89;97307.44;8314599;28;20285;-79
2021/05/12 12:00:16;;;;;;;17.03;15.27;;;;;;;17.25;61.28;97310.22;8314927;28;20495;-75
2021/05/12 12:04:25;;;;;;;15.73;13.77;;;;;;;17.23;60.78;97306.91;8314525;28;20240;-79
2021/05/12 12:08:28;;;;;;;12.60;11.30;;;;;;;17.22;60.28;97300.03;8315466;28;20240;-77
2021/05/12 12:12:33;;;;;;;27.87;12.73;;;;;;;17.12;61.32;97308.63;8315380;28;20264;-79
2021/05/12 12:16:38;;;;;;;17.13;12.93;;;;;;;17.10;61.88;97305.31;8295338;28;20273;-79
2021/05/12 12:20:41;;;;;;;15.37;13.33;;;;;;;17.14;61.28;97308.50;8282037;28;20378;-78
2021/05/12 12:24:43;;;;;;;18.33;14.57;;;;;;;16.97;62.28;97302.84;8281900;28;20252;-78
2021/05/12 12:28:49;;;;;;;19.27;14.27;;;;;;;16.92;61.52;97294.53;8281823;28;20229;-79
2021/05/12 12:32:51;;;;;;;16.77;14.70;;;;;;;16.93;63.62;97305.84;8281679;28;20210;-78
2021/05/12 12:36:59;;;;;;;19.37;14.70;;;;;;;16.86;62.81;97313.34;8282100;28;20396;-78
2021/05/12 12:41:02;;;;;;;19.10;16.53;;;;;;;16.84;62.59;97310.00;8281831;28;20217;-79
2021/05/12 12:45:07;;;;;;;24.10;17.97;;;;;;;16.57;63.59;97302.56;8281861;28;20205;-62
2021/05/12 12:49:09;;;;;;;20.60;15.27;;;;;;;16.69;63.25;97314.66;8282752;28;20205;-62
2021/05/12 12:53:18;;;;;;;16.40;14.70;;;;;;;16.63;62.79;97312.53;8314036;28;20216;-62
2021/05/12 12:57:21;;;;;;;18.27;15.50;;;;;;;16.44;63.05;97315.75;8319738;28;20567;-62
2021/05/12 13:01:43;;;;;;;13.90;12.53;;;;;;;16.49;62.11;97321.47;8320261;28;20243;-62
2021/05/12 13:05:50;;;;;;;21.10;12.93;;;;;;;16.37;62.34;97318.03;8320050;28;20378;-62
2021/05/12 13:09:52;;;;;;;27.90;13.47;;;;;;;16.39;63.07;97315.28;8319891;28;20197;-62
2021/05/12 13:14:01;;;;;;;29.07;14.43;;;;;;;16.49;62.91;97325.88;8319711;28;20205;-63
2021/05/12 13:18:10;;;;;;;28.90;15.30;;;;;;;16.34;63.17;97333.13;8319415;28;20201;-62
2021/05/12 13:22:26;;;;;;;20.93;13.90;;;;;;;16.40;62.93;97335.25;8319915;28;20233;-77
2021/05/12 13:26:33;;;;;;;15.53;13.40;;;;;;;16.46;63.25;97347.00;8319854;28;20220;-74
2021/05/12 13:30:35;;;;;;;23.27;14.00;;;;;;;16.14;63.95;97335.47;8320629;28;20437;-78
2021/05/12 13:34:39;;;;;;;16.77;13.50;;;;;;;16.09;63.99;97349.84;8320375;28;20205;-78
2021/05/12 13:38:41;;;;;;;18.77;14.70;;;;;;;15.85;65.23;97348.16;8320199;28;20205;-79
2021/05/12 13:42:44;;;;;;;16.83;14.87;;;;;;;16.05;64.22;97349.25;8306365;28;20226;-77
2021/05/12 13:46:47;;;;;;;28.27;15.17;;;;;;;15.87;65.36;97346.25;8286626;28;20208;-74
2021/05/12 13:50:50;;;;;;;16.70;14.77;;;;;;;16.01;64.62;97343.44;8287063;28;20367;-79
2021/05/12 13:55:01;;;;;;;14.37;12.07;;;;;;;15.82;64.62;97343.16;8286993;28;20336;-77
2021/05/12 14:03:21;;;;;;;13.53;9.93;;;;;;;15.81;63.17;97346.72;8283531;28;20235;-74
2021/05/12 14:07:24;;;;;;;14.97;8.90;;;;;;;15.93;62.62;97339.75;8285156;28;20245;-77
2021/05/12 14:11:27;;;;;;;12.43;9.03;;;;;;;16.07;63.15;97338.69;8286652;28;20364;-77
2021/05/12 14:15:49;;;;;;;11.77;9.77;;;;;;;16.19;64.03;97338.56;8285602;28;20198;-75
2021/05/12 14:19:51;;;;;;;15.23;10.57;;;;;;;16.22;62.99;97334.88;8285246;28;20209;-76
2021/05/12 14:23:55;;;;;;;16.03;8.00;;;;;;;16.23;63.14;97336.56;8284604;28;20241;-79
2021/05/12 14:28:22;;;;;;;12.03;8.07;;;;;;;16.10;62.69;97336.66;8284415;28;20202;-75
2021/05/12 14:32:24;;;;;;;10.13;8.60;;;;;;;16.16;63.17;97332.75;8285426;28;20432;-77
2021/05/12 14:36:27;;;;;;;12.07;9.00;;;;;;;16.17;62.52;97331.81;8284497;28;20419;-79
2021/05/12 14:40:30;;;;;;;10.67;8.13;;;;;;;16.20;63.30;97334.16;8284537;28;20472;-74
2021/05/12 14:44:33;;;;;;;10.33;7.63;;;;;;;16.00;62.49;97333.09;8303888;28;20260;-75
2021/05/12 14:48:40;;;;;;;9.43;7.53;;;;;;;16.19;62.97;97335.97;8316824;28;20201;-74
2021/05/12 14:52:45;;;;;;;11.97;7.90;;;;;;;15.98;63.26;97346.28;8316049;28;20216;-78
2021/05/12 14:56:51;;;;;;;12.87;8.77;;;;;;;15.94;63.59;97341.41;8315967;28;20213;-74
2021/05/12 15:01:10;;;;;;;8.20;7.40;;;;;;;16.18;62.79;97336.06;8315848;28;20376;-75
2021/05/12 15:09:32;;;;;;;10.60;7.97;;;;;;;15.91;62.71;97329.41;8313753;28;20201;-78
2021/05/12 15:13:35;;;;;;;9.90;7.90;;;;;;;16.06;63.02;97332.63;8315754;28;20246;-75
2021/05/12 15:17:38;;;;;;;11.00;8.47;;;;;;;16.05;63.42;97335.34;8314791;28;20208;-75
2021/05/12 15:21:40;;;;;;;10.77;9.20;;;;;;;16.19;63.08;97338.56;8287531;28;20213;-75
2021/05/12 15:25:42;;;;;;;11.80;8.03;;;;;;;16.22;63.46;97333.13;8282641;28;20205;-77
2021/05/12 15:29:46;;;;;;;13.43;8.70;;;;;;;16.18;63.44;97339.53;8282392;28;20508;-80
2021/05/12 15:33:49;;;;;;;9.70;8.73;;;;;;;16.06;62.95;97334.41;8282512;28;20228;-76
2021/05/12 15:37:52;;;;;;;9.97;8.97;;;;;;;16.13;63.15;97339.06;8282052;28;20234;-63
2021/05/12 15:41:54;;;;;;;19.63;15.83;;;;;;;15.95;64.12;97332.63;8281845;28;20321;-63
2021/05/12 15:45:59;;;;;;;12.53;11.23;;;;;;;16.02;63.23;97336.44;8282273;28;20489;-63
2021/05/12 15:50:02;;;;;;;14.07;11.77;;;;;;;15.93;64.43;97337.13;8282004;28;20264;-63
2021/05/12 15:54:05;;;;;;;18.73;13.37;;;;;;;15.81;65.29;97342.34;8281469;28;20198;-64
2021/05/12 15:58:08;;;;;;;22.23;15.07;;;;;;;15.93;64.83;97335.34;8281819;28;20272;-63
2021/05/12 16:02:14;;;;;;;14.53;12.27;;;;;;;15.73;65.33;97349.06;8282223;28;20241;-63
2021/05/12 16:06:17;;;;;;;13.40;11.77;;;;;;;15.86;65.50;97344.59;8281540;28;20237;-64
2021/05/12 16:10:19;;;;;;;12.30;10.97;;;;;;;15.85;65.43;97347.34;8281648;28;20201;-63
2021/05/12 16:14:23;;;;;;;16.90;12.37;;;;;;;15.86;65.20;97343.75;8280851;28;20217;-63
2021/05/12 16:18:27;;;;;;;17.00;11.67;;;;;;;15.87;65.21;97341.03;8281319;28;20198;-65
2021/05/12 16:22:29;;;;;;;15.13;13.53;;;;;;;15.68;66.05;97346.78;8280794;28;20221;-63
2021/05/12 16:26:32;;;;;;;17.10;12.00;;;;;;;15.68;65.83;97348.56;8278631;28;20372;-63
2021/05/12 16:30:34;;;;;;;14.93;11.47;;;;;;;15.83;65.65;97340.44;8288089;28;20193;-64
2021/05/12 16:34:37;;;;;;;17.73;11.37;;;;;;;15.85;65.36;97339.50;8291722;28;20276;-64
2021/05/12 16:38:40;;;;;;;12.17;10.83;;;;;;;15.69;66.04;97343.25;8291967;28;20202;-63
2021/05/12 16:42:44;;;;;;;12.20;9.90;;;;;;;15.77;65.67;97337.47;8292143;28;20408;-65
2021/05/12 16:46:47;;;;;;;10.53;9.30;;;;;;;15.69;65.44;97348.47;8291712;28;20204;-63
2021/05/12 16:50:52;;;;;;;12.20;10.47;;;;;;;15.57;65.54;97355.44;8291300;28;20206;-63
2021/05/12 16:54:55;;;;;;;28.97;9.33;;;;;;;15.54;65.99;97358.25;8288991;28;20197;-63
2021/05/12 16:58:57;;;;;;;9.97;7.77;;;;;;;15.57;65.62;97352.81;8290155;28;20193;-63
2021/05/12 17:03:00;;;;;;;11.20;9.10;;;;;;;15.49;65.33;97354.31;8290236;28;20388;-64
2021/05/12 17:07:03;;;;;;;11.73;8.53;;;;;;;15.36;65.92;97352.59;8289565;28;20225;-64
2021/05/12 17:11:09;;;;;;;12.17;8.87;;;;;;;15.27;66.39;97345.47;8291432;28;20204;-64
2021/05/12 17:15:13;;;;;;;10.97;7.67;;;;;;;15.33;65.74;97350.25;8289068;28;20206;-64
2021/05/12 17:19:15;;;;;;;11.60;8.13;;;;;;;15.36;65.30;97344.78;8290024;28;20234;-63
2021/05/12 17:23:19;;;;;;;10.70;9.20;;;;;;;15.37;65.41;97345.63;8290817;28;20229;-63
2021/05/12 17:27:21;;;;;;;11.13;8.77;;;;;;;15.40;65.20;97350.59;8290845;28;20264;-63
2021/05/12 17:31:24;;;;;;;13.90;9.43;;;;;;;15.39;65.62;97355.00;8290781;28;20240;-63
2021/05/12 17:35:27;;;;;;;14.33;12.83;;;;;;;15.45;65.28;97356.31;8290484;28;20391;-63
2021/05/12 17:39:30;;;;;;;11.80;8.07;;;;;;;15.43;65.24;97353.00;8290877;28;20224;-63
2021/05/12 17:43:33;;;;;;;10.70;7.70;;;;;;;15.45;65.05;97353.72;8285492;28;20251;-64
2021/05/12 17:47:35;;;;;;;12.37;8.87;;;;;;;15.38;65.58;97353.34;8286044;28;20216;-63
2021/05/12 17:51:44;;;;;;;13.73;8.50;;;;;;;15.36;65.61;97347.38;8286288;28;20225;-63
2021/05/12 17:55:47;;;;;;;11.07;8.53;;;;;;;15.37;65.50;97354.28;8286081;28;20209;-63
2021/05/12 17:59:49;;;;;;;11.70;8.77;;;;;;;15.38;65.35;97350.75;8286034;28;20477;-63
2021/05/12 18:03:53;;;;;;;10.13;8.70;;;;;;;15.30;65.23;97350.44;8285790;28;20230;-63
2021/05/12 18:07:56;;;;;;;9.57;8.30;;;;;;;15.30;65.62;97350.44;8293086;28;20236;-63
2021/05/12 18:12:12;;;;;;;11.47;8.90;;;;;;;15.26;65.55;97354.22;8300879;28;20217;-63
2021/05/12 18:20:35;;;;;;;10.23;8.70;;;;;;;15.23;65.58;97344.88;8285116;28;20277;-62
2021/05/12 18:24:38;;;;;;;10.93;8.17;;;;;;;15.16;65.93;97348.03;8287197;28;20228;-63
2021/05/12 18:28:41;;;;;;;11.17;8.53;;;;;;;15.19;65.85;97350.41;8284352;28;20194;-63
2021/05/12 18:32:44;;;;;;;8.70;7.80;;;;;;;15.19;65.45;97353.00;8284754;28;20197;-63
2021/05/12 18:36:48;;;;;;;13.80;8.70;;;;;;;15.08;65.62;97345.97;8281585;28;20212;-63
2021/05/12 18:40:51;;;;;;;21.30;6.17;;;;;;;15.85;69.86;97357.78;8289678;28;20194;-68
2021/05/12 18:45:00;;;;;;;9.90;7.73;;;;;;;15.85;64.52;97350.75;8286730;28;20295;-64
2021/05/12 18:49:03;;;;;;;9.17;6.77;;;;;;;15.43;64.27;97355.59;8284226;28;20253;-64
2021/05/12 18:53:05;;;;;;;10.37;7.20;;;;;;;15.35;64.50;97356.16;8283979;28;20232;-63
2021/05/12 18:57:08;;;;;;;9.77;7.07;;;;;;;15.28;64.74;97354.13;8284758;28;20208;-63
2021/05/12 19:01:13;;;;;;;8.90;7.90;;;;;;;15.25;65.18;97350.81;8283472;28;20530;-64
2021/05/12 19:05:16;;;;;;;12.67;10.27;;;;;;;15.11;65.83;97350.13;8283648;28;20460;-64
2021/05/12 19:09:24;;;;;;;18.03;12.07;;;;;;;15.17;65.61;97357.50;8283435;28;20212;-64